Time;durP1;ratioP1;P1;durP2;ratioP2;P2;SDS_P1;SDS_P2;PMS_P1;PMS_P2;Temp;Humidity;BMP_temperature;BMP_pressure;BME280_temperature;BME280_humidity;BME280_pressure;Samples;Min_cycle;Max_cycle;Signal;HPM_P1;HPM_P2
2023/09/23 00:00:46;;;;;;;;;;;15.90;94.50;;;16.02;60.52;98237.69;5034000;27;115013;-93
2023/09/23 00:03:13;;;;;;;;;;;15.90;94.50;;;15.99;60.59;98237.63;5029444;27;113179;-93
2023/09/23 00:05:41;;;;;;;;;;;15.90;94.60;;;15.99;60.98;98243.19;5028321;27;124034;-94
2023/09/23 00:08:08;;;;;;;;;;;15.90;94.70;;;15.95;61.14;98242.28;5032730;27;123325;-92
2023/09/23 00:10:34;;;;;;;;;;;15.80;94.70;;;15.89;61.12;98236.97;5033051;27;114361;-91
2023/09/23 00:13:00;;;;;;;;;;;15.80;94.80;;;15.86;61.13;98237.72;5031488;27;113626;-91
2023/09/23 00:15:27;;;;;;;;;;;15.70;94.70;;;15.85;60.98;98247.25;5054522;27;122305;-93
2023/09/23 00:17:55;;;;;;;;;;;15.40;94.60;;;15.82;61.10;98249.91;5027015;27;123819;-93
2023/09/23 00:20:22;;;;;;;;;;;15.70;94.80;;;15.83;61.17;98249.56;5032852;27;114422;-92
2023/09/23 00:22:48;;;;;;;;;;;15.70;94.80;;;15.86;61.07;98246.06;5038362;27;114151;-93
2023/09/23 00:25:18;;;;;;;;;;;15.70;94.80;;;15.85;61.17;98254.78;5024248;27;124354;-93
2023/09/23 00:27:49;;;;;;;;;;;15.70;94.90;;;15.86;61.20;98250.84;5027982;27;124027;-92
2023/09/23 00:30:17;;;;;;;;;;;15.70;94.80;;;15.87;61.04;98252.44;5063455;27;118787;-93
2023/09/23 00:32:44;;;;;;;;;;;15.70;94.80;;;15.88;60.87;98245.72;5063777;27;114536;-95
2023/09/23 00:35:11;;;;;;;;;;;15.70;94.70;;;15.88;60.41;98246.53;5031976;27;123542;-95
2023/09/23 00:37:40;;;;;;;;;;;15.70;94.60;;;15.89;60.42;98245.34;5034285;27;123713;-93
2023/09/23 00:40:16;;;;;;;;;;;15.70;94.60;;;15.90;60.22;98248.94;5033790;27;115136;-93
2023/09/23 00:42:44;;;;;;;;;;;15.70;94.50;;;15.87;60.22;98246.88;5027206;28;113751;-92
2023/09/23 00:45:14;;;;;;;;;;;15.70;94.50;;;15.88;59.90;98254.06;5057811;27;124307;-93
2023/09/23 00:47:43;;;;;;;;;;;15.70;94.40;;;15.87;60.08;98247.66;5027579;27;123936;-93
2023/09/23 00:50:16;;;;;;;;;;;15.70;94.40;;;15.87;60.13;98246.88;5003358;27;114136;-92
2023/09/23 00:52:47;;;;;;;;;;;15.60;94.30;;;15.82;59.66;98244.34;5027523;27;113963;-93
2023/09/23 00:55:16;;;;;;;;;;;15.60;94.20;;;15.78;59.60;98246.25;5024997;27;124039;-94
2023/09/23 00:57:45;;;;;;;;;;;15.60;94.10;;;15.72;59.65;98253.28;5027551;27;123826;-93
2023/09/23 01:00:23;;;;;;;;;;;15.50;94.00;;;15.64;59.27;98255.03;5030454;28;114572;-93
2023/09/23 01:02:49;;;;;;;;;;;15.50;94.00;;;15.54;59.44;98238.88;5037015;27;113209;-92
2023/09/23 01:05:19;;;;;;;;;;;15.40;93.90;;;15.49;59.77;98244.69;5065905;27;124343;-94
2023/09/23 01:07:48;;;;;;;;;;;15.40;93.90;;;15.44;59.87;98246.56;5040316;27;123936;-93
2023/09/23 01:10:17;;;;;;;;;;;15.30;94.00;;;15.41;59.93;98257.63;5033659;27;114657;-94
2023/09/23 01:12:46;;;;;;;;;;;15.30;94.00;;;15.33;60.51;98245.50;5048443;27;113110;-92
2023/09/23 01:15:13;;;;;;;;;;;15.30;94.00;;;15.27;60.12;98252.50;5022968;27;123920;-93
2023/09/23 01:17:39;;;;;;;;;;;15.20;94.00;;;15.22;59.98;98256.34;5030654;27;123309;-93
2023/09/23 01:20:09;;;;;;;;;;;15.20;93.90;;;15.19;59.97;98267.38;5032074;27;115314;-92
2023/09/23 01:22:36;;;;;;;;;;;15.10;93.90;;;15.12;59.77;98267.97;5031406;27;113969;-93
2023/09/23 01:25:02;;;;;;;;;;;15.10;93.90;;;15.07;60.02;98261.88;5028883;27;124653;-93
2023/09/23 01:27:34;;;;;;;;;;;15.00;93.90;;;15.01;59.62;98273.25;5033536;27;123444;-92
2023/09/23 01:30:03;;;;;;;;;;;15.00;93.80;;;15.00;59.86;98277.22;5032282;27;114537;-92
2023/09/23 01:32:38;;;;;;;;;;;14.90;93.70;;;14.96;59.90;98281.88;5032633;28;111968;-91
2023/09/23 01:35:07;;;;;;;;;;;14.90;94.10;;;14.94;59.55;98275.84;5030350;27;123913;-93
2023/09/23 01:37:35;;;;;;;;;;;14.80;93.80;;;14.94;59.58;98278.63;5031427;27;123010;-91
2023/09/23 01:40:03;;;;;;;;;;;14.90;93.70;;;14.91;59.61;98290.47;5030120;27;113806;-95
2023/09/23 01:42:32;;;;;;;;;;;14.80;93.80;;;14.92;59.50;98299.63;5060512;27;114106;-93
2023/09/23 01:45:03;;;;;;;;;;;14.80;93.70;;;14.89;59.42;98300.34;5022961;28;124294;-93
2023/09/23 01:47:30;;;;;;;;;;;14.80;93.90;;;14.91;59.30;98318.28;5029788;28;121611;-91
2023/09/23 01:49:56;;;;;;;;;;;14.80;93.60;;;14.92;59.19;98314.34;5030867;27;114391;-92
2023/09/23 01:52:23;;;;;;;;;;;14.80;93.50;;;14.93;58.71;98310.38;5030184;27;113465;-93
2023/09/23 01:54:49;;;;;;;;;;;14.80;93.50;;;14.87;58.73;98297.09;5038779;27;124187;-92
2023/09/23 01:57:18;;;;;;;;;;;14.70;93.20;;;14.83;58.74;98299.78;5030159;28;123671;-91
2023/09/23 01:59:44;;;;;;;;;;;14.70;93.20;;;14.76;58.51;98291.22;5051053;27;113895;-91
2023/09/23 02:02:11;;;;;;;;;;;14.70;93.20;;;14.73;58.32;98300.28;5031201;27;113847;-91
2023/09/23 02:04:39;;;;;;;;;;;14.60;93.10;;;14.68;58.58;98304.09;5019280;28;122990;-90
2023/09/23 02:07:10;;;;;;;;;;;17.50;94.40;;;14.61;58.59;98303.06;5016215;28;122296;-92
2023/09/23 02:09:39;;;;;;;;;;;14.50;93.10;;;14.58;58.82;98310.94;5050610;27;114806;-92
2023/09/23 02:12:06;;;;;;;;;;;14.50;93.20;;;14.54;58.82;98309.25;5019076;28;114484;-90
2023/09/23 02:14:32;;;;;;;;;;;14.40;93.30;;;14.50;58.68;98314.63;5027611;27;123444;-90
2023/09/23 02:17:01;;;;;;;;;;;14.40;93.50;;;14.47;59.04;98325.66;5017232;28;123620;-93
2023/09/23 02:19:30;;;;;;;;;;;14.40;93.20;;;14.40;59.13;98330.97;5032456;28;112703;-90
2023/09/23 02:21:56;;;;;;;;;;;14.40;93.20;;;14.39;59.13;98335.75;5028766;28;113162;-91
2023/09/23 02:24:23;;;;;;;;;;;14.30;93.40;;;14.43;59.34;98336.69;5036899;27;123377;-91
2023/09/23 02:26:49;;;;;;;;;;;14.30;93.30;;;14.43;59.08;98336.69;5031563;27;123826;-91
2023/09/23 02:29:16;;;;;;;;;;;14.30;93.40;;;14.42;59.48;98326.69;5032803;27;114516;-91
2023/09/23 02:31:47;;;;;;;;;;;14.30;93.40;;;14.42;59.29;98332.25;5032270;27;113393;-92
2023/09/23 02:34:20;;;;;;;;;;;14.30;93.40;;;14.41;59.29;98343.75;5034027;28;124377;-92
2023/09/23 02:36:50;;;;;;;;;;;14.20;93.30;;;14.35;59.38;98343.16;5035500;27;123342;-92
2023/09/23 02:39:21;;;;;;;;;;;14.20;93.40;;;14.33;59.41;98339.94;5038627;27;113776;-91
2023/09/23 02:41:53;;;;;;;;;;;14.20;93.40;;;14.31;59.84;98345.81;5036575;27;113007;-94
2023/09/23 02:44:20;;;;;;;;;;;14.20;93.50;;;14.31;59.67;98345.81;5018075;28;123681;-93
2023/09/23 02:46:46;;;;;;;;;;;14.20;93.50;;;14.31;59.65;98358.91;5035053;27;124246;-92
2023/09/23 02:49:14;;;;;;;;;;;14.20;93.60;;;14.33;59.81;98351.03;5021344;28;112980;-92
2023/09/23 02:51:44;;;;;;;;;;;16.20;94.50;;;14.36;59.71;98361.47;5055071;27;112920;-93
2023/09/23 02:54:15;;;;;;;;;;;14.20;93.60;;;14.37;59.65;98357.50;5029142;27;123543;-91
2023/09/23 02:56:41;;;;;;;;;;;14.20;93.70;;;14.36;59.82;98358.69;5037733;27;123352;-92
2023/09/23 02:59:25;;;;;;;;;;;14.20;93.80;;;14.38;59.79;98373.03;5026705;27;113921;-93
2023/09/23 03:01:53;;;;;;;;;;;14.20;93.70;;;14.37;59.75;98374.19;5039638;27;115153;-89
2023/09/23 03:04:24;;;;;;;;;;;14.20;93.70;;;14.39;59.91;98380.22;5036536;27;125219;-92
2023/09/23 03:06:55;;;;;;;;;;;14.20;93.70;;;14.39;59.85;98385.78;5037855;27;123012;-90
2023/09/23 03:09:25;;;;;;;;;;;14.30;93.80;;;14.39;59.94;98388.56;5044169;28;114710;-89
2023/09/23 03:11:56;;;;;;;;;;;14.20;93.80;;;14.36;60.10;98380.91;5026901;28;112452;-90
2023/09/23 03:14:28;;;;;;;;;;;14.20;93.80;;;14.37;60.11;98388.06;5041380;27;122659;-90
2023/09/23 03:16:57;;;;;;;;;;;14.30;93.90;;;14.34;59.96;98384.03;5033750;27;123031;-92
2023/09/23 03:19:26;;;;;;;;;;;14.30;93.90;;;14.38;60.22;98400.03;5013981;28;113569;-92
2023/09/23 03:21:56;;;;;;;;;;;14.20;93.90;;;14.35;60.14;98401.53;5051521;27;112938;-90
2023/09/23 03:24:25;;;;;;;;;;;14.30;93.90;;;14.32;60.07;98397.47;5020043;27;124238;-90
2023/09/23 03:26:58;;;;;;;;;;;14.20;93.90;;;14.32;60.44;98399.44;5039539;27;123101;-92
2023/09/23 03:29:32;;;;;;;;;;;14.10;93.90;;;14.33;60.26;98407.44;5066230;27;114698;-91
2023/09/23 03:31:59;;;;;;;;;;;14.20;93.90;;;14.31;60.25;98406.16;5037790;27;113293;-91
2023/09/23 03:34:29;;;;;;;;;;;14.20;93.90;;;14.29;59.91;98403.75;5038213;27;124392;-91
2023/09/23 03:36:56;;;;;;;;;;;14.20;93.90;;;14.30;60.28;98418.44;5030685;28;123760;-92
2023/09/23 03:39:22;;;;;;;;;;;14.20;94.10;;;14.26;60.39;98409.97;5033816;27;112680;-91
2023/09/23 03:41:48;;;;;;;;;;;14.20;94.00;;;14.27;60.08;98421.91;5064381;27;113882;-91
2023/09/23 03:44:15;;;;;;;;;;;14.10;94.00;;;14.27;60.14;98427.47;5031480;28;124523;-90
2023/09/23 03:46:50;;;;;;;;;;;14.10;94.00;;;14.27;60.24;98424.69;5033424;27;123340;-92
2023/09/23 03:49:20;;;;;;;;;;;14.10;93.90;;;14.25;60.15;98425.03;5031530;27;115322;-93
2023/09/23 03:51:47;;;;;;;;;;;14.10;94.00;;;14.29;60.44;98428.75;5048379;27;113923;-92
2023/09/23 03:54:17;;;;;;;;;;;14.10;93.90;;;14.32;60.25;98435.59;5032649;27;125314;-92
2023/09/23 03:56:43;;;;;;;;;;;14.10;93.90;;;14.35;60.11;98429.31;5048062;27;123490;-92
2023/09/23 03:59:13;;;;;;;;;;;14.20;94.20;;;14.38;60.17;98420.28;5017327;28;114506;-91
2023/09/23 04:01:41;;;;;;;;;;;14.20;94.00;;;14.39;59.95;98423.88;5043922;27;113658;-91
2023/09/23 04:04:10;;;;;;;;;;;14.20;94.00;;;14.43;60.11;98430.38;5063516;27;123171;-91
2023/09/23 04:06:36;;;;;;;;;;;15.40;94.70;;;14.43;60.08;98433.97;5030646;27;122913;-91
2023/09/23 04:09:06;;;;;;;;;;;14.20;94.20;;;14.45;59.92;98436.38;5030203;27;114552;-91
2023/09/23 04:11:35;;;;;;;;;;;14.20;94.20;;;14.42;60.01;98440.66;5033567;28;112059;-91
2023/09/23 04:14:01;;;;;;;;;;;13.00;93.50;;;14.42;60.12;98437.88;5029826;27;124107;-91
2023/09/23 04:16:27;;;;;;;;;;;14.20;94.10;;;14.42;59.89;98446.22;5016459;28;123500;-91
2023/09/23 04:18:54;;;;;;;;;;;14.20;94.10;;;14.42;60.00;98435.09;5051262;27;114532;-92
2023/09/23 04:21:27;;;;;;;;;;;14.20;94.10;;;14.43;59.82;98428.41;5031965;27;112090;-91
2023/09/23 04:23:53;;;;;;;;;;;14.20;93.90;;;14.41;59.79;98433.50;5062624;27;124227;-92
2023/09/23 04:26:24;;;;;;;;;;;14.20;94.00;;;14.45;60.07;98439.16;5013572;28;123990;-92
2023/09/23 04:28:53;;;;;;;;;;;14.20;94.00;;;14.42;59.73;98443.44;5036919;27;113870;-91
2023/09/23 04:31:19;;;;;;;;;;;14.20;93.90;;;14.43;59.82;98447.06;5029850;27;113655;-91
2023/09/23 04:33:47;;;;;;;;;;;14.30;94.20;;;14.46;59.86;98444.38;5030239;28;124589;-93
2023/09/23 04:36:16;;;;;;;;;;;14.20;93.90;;;14.50;59.84;98450.84;5028648;27;123916;-91
2023/09/23 04:38:44;;;;;;;;;;;14.20;94.00;;;14.51;59.53;98455.28;5047609;27;114832;-91
2023/09/23 04:41:11;;;;;;;;;;;17.10;95.20;;;14.47;59.76;98457.09;5032718;27;115003;-92
2023/09/23 04:43:41;;;;;;;;;;;14.20;93.90;;;14.46;59.42;98458.28;5029490;28;123338;-91
2023/09/23 04:46:08;;;;;;;;;;;14.30;93.80;;;14.47;59.27;98464.66;5029696;27;123307;-92
2023/09/23 04:48:35;;;;;;;;;;;14.20;93.90;;;14.44;59.56;98459.78;5029542;27;113754;-92
2023/09/23 04:51:02;;;;;;;;;;;14.20;93.60;;;14.39;59.27;98457.22;5029211;27;113538;-90
2023/09/23 04:53:29;;;;;;;;;;;14.20;93.70;;;14.33;59.24;98459.44;5065840;27;124448;-91
2023/09/23 04:55:58;;;;;;;;;;;11.30;92.40;;;14.27;59.30;98460.81;5029669;28;123862;-91
2023/09/23 04:58:24;;;;;;;;;;;14.10;93.60;;;14.24;59.39;98467.03;5028342;27;114637;-91
2023/09/23 05:00:52;;;;;;;;;;;14.00;93.60;;;14.17;59.39;98477.94;5031517;27;113841;-91
2023/09/23 05:03:19;;;;;;;;;;;14.00;93.50;;;14.12;59.48;98476.97;5029099;28;123630;-92
2023/09/23 05:05:46;;;;;;;;;;;14.00;93.50;;;14.08;59.67;98470.50;5011549;28;122357;-92
2023/09/23 05:08:13;;;;;;;;;;;14.00;93.80;;;14.07;59.66;98468.88;5022263;28;113790;-91
2023/09/23 05:10:41;;;;;;;;;;;14.00;93.60;;;14.06;59.83;98477.56;5034793;27;113231;-90
2023/09/23 05:13:08;;;;;;;;;;;13.90;93.70;;;14.07;59.66;98479.16;5021882;28;123318;-92
2023/09/23 05:15:35;;;;;;;;;;;13.90;93.60;;;14.07;60.04;98485.53;5010323;27;124478;-92
2023/09/23 05:18:03;;;;;;;;;;;13.90;93.90;;;14.07;59.58;98491.09;5030920;27;112439;-91
2023/09/23 05:20:35;;;;;;;;;;;14.00;93.70;;;14.08;59.92;98486.38;5032486;27;113041;-92
2023/09/23 05:23:05;;;;;;;;;;;13.90;93.70;;;14.08;59.79;98483.59;5025530;28;123556;-91
2023/09/23 05:25:35;;;;;;;;;;;14.00;93.90;;;14.10;59.72;98507.09;5059907;27;124170;-92
2023/09/23 05:28:03;;;;;;;;;;;13.90;93.70;;;14.11;60.10;98497.59;5031606;27;115323;-93
2023/09/23 05:30:30;;;;;;;;;;;13.90;93.90;;;14.14;59.70;98501.66;5037133;27;113484;-91
2023/09/23 05:32:57;;;;;;;;;;;14.00;93.90;;;14.16;59.72;98510.47;5076917;27;124528;-93
2023/09/23 05:35:24;;;;;;;;;;;13.90;93.80;;;14.14;59.73;98515.53;5040491;27;123833;-92
2023/09/23 05:37:51;;;;;;;;;;;13.90;93.90;;;14.14;59.59;98507.22;5042309;27;113893;-93
2023/09/23 05:40:23;;;;;;;;;;;13.90;93.90;;;14.12;59.67;98521.44;5043059;27;113770;-94
2023/09/23 05:42:50;;;;;;;;;;;13.90;93.70;;;14.11;59.44;98524.56;5068630;27;122493;-91
2023/09/23 05:45:23;;;;;;;;;;;13.90;93.70;;;14.15;59.51;98525.50;5018942;28;124260;-93
2023/09/23 05:47:54;;;;;;;;;;;13.90;93.80;;;14.17;59.83;98537.09;5051205;27;114039;-94
2023/09/23 05:50:22;;;;;;;;;;;14.00;93.80;;;14.20;59.62;98544.72;5053709;27;112301;-92
2023/09/23 05:52:48;;;;;;;;;;;14.00;93.90;;;14.24;59.62;98540.13;5076968;27;123784;-91
2023/09/23 05:55:15;;;;;;;;;;;14.00;93.90;;;14.26;59.50;98542.53;5038162;27;124157;-92
2023/09/23 05:57:41;;;;;;;;;;;14.00;93.80;;;14.27;59.56;98549.75;5040992;27;113887;-91
2023/09/23 06:00:12;;;;;;;;;;;13.90;93.80;;;14.29;59.54;98547.41;5020142;28;113568;-92
2023/09/23 06:02:38;;;;;;;;;;;14.00;93.90;;;14.29;59.43;98548.25;5060393;27;125231;-92
2023/09/23 06:05:05;;;;;;;;;;;14.00;93.90;;;14.28;59.40;98556.91;5043811;27;124112;-94
2023/09/23 06:07:31;;;;;;;;;;;14.00;93.80;;;14.26;59.43;98567.56;5029345;27;115233;-92
2023/09/23 06:09:59;;;;;;;;;;;14.00;93.80;;;14.24;59.69;98564.28;5048891;27;113378;-92
2023/09/23 06:12:30;;;;;;;;;;;14.00;93.80;;;14.20;59.54;98563.38;5030613;27;122459;-93
2023/09/23 06:14:57;;;;;;;;;;;14.00;93.80;;;14.18;59.73;98574.81;5062268;27;124086;-92
2023/09/23 06:17:24;;;;;;;;;;;14.00;93.80;;;14.17;59.63;98577.94;5027562;27;115389;-94
2023/09/23 06:19:51;;;;;;;;;;;13.90;93.80;;;14.15;59.76;98581.88;5050951;27;115100;-93
2023/09/23 06:22:18;;;;;;;;;;;13.90;93.90;;;14.16;59.82;98579.94;5029492;27;124371;-92
2023/09/23 06:24:49;;;;;;;;;;;14.00;93.90;;;14.19;59.78;98584.00;5045991;27;124152;-91
2023/09/23 06:27:16;;;;;;;;;;;13.90;93.90;;;14.18;59.78;98585.94;5019151;27;114211;-93
2023/09/23 06:29:43;;;;;;;;;;;13.90;94.00;;;14.19;59.96;98581.22;5060742;27;113546;-91
2023/09/23 06:32:13;;;;;;;;;;;13.90;93.90;;;14.18;59.82;98587.91;5062445;27;124167;-92
2023/09/23 06:34:41;;;;;;;;;;;13.90;93.90;;;14.21;59.91;98590.00;5018011;27;122822;-90
2023/09/23 06:37:10;;;;;;;;;;;13.90;94.00;;;14.23;59.84;98587.69;5028176;28;114102;-91
2023/09/23 06:39:38;;;;;;;;;;;13.90;94.00;;;14.25;59.97;98590.94;5030307;27;113747;-91
2023/09/23 06:42:05;;;;;;;;;;;14.00;94.10;;;14.31;59.82;98601.50;5027468;27;124089;-93
2023/09/23 06:44:31;;;;;;;;;;;14.00;94.20;;;14.34;59.70;98600.00;5032085;27;123821;-93
2023/09/23 06:47:00;;;;;;;;;;;14.00;94.10;;;14.39;59.45;98601.75;5015915;28;113606;-95
2023/09/23 06:49:26;;;;;;;;;;;14.10;94.10;;;14.49;59.77;98606.91;5027851;27;114131;-90
2023/09/23 06:51:55;;;;;;;;;;;14.20;94.10;;;14.53;59.43;98603.13;5023782;27;124634;-92
2023/09/23 06:54:24;;;;;;;;;;;14.20;94.10;;;14.60;59.50;98608.09;5018543;27;127086;-93
2023/09/23 06:56:56;;;;;;;;;;;14.30;94.10;;;14.68;59.55;98615.53;5026752;27;114539;-92
2023/09/23 06:59:25;;;;;;;;;;;14.30;94.10;;;14.77;59.55;98616.25;5011477;28;113268;-93
2023/09/23 07:01:51;;;;;;;;;;;14.40;94.10;;;14.88;59.49;98624.94;5037382;27;124297;-92
2023/09/23 07:04:18;;;;;;;;;;;14.50;94.10;;;14.96;59.16;98621.28;5028557;27;123767;-93
2023/09/23 07:06:46;;;;;;;;;;;14.50;94.10;;;15.09;58.93;98624.88;5026403;28;115251;-92
2023/09/23 07:09:13;;;;;;;;;;;14.60;94.10;;;15.19;59.04;98629.16;5027414;27;115263;-92
2023/09/23 07:11:39;;;;;;;;;;;14.70;94.10;;;15.28;58.86;98637.41;5017859;27;124096;-93
2023/09/23 07:14:08;;;;;;;;;;;14.80;94.00;;;15.38;58.50;98645.28;5023609;27;123887;-91
2023/09/23 07:16:36;;;;;;;;;;;14.90;94.00;;;15.48;58.25;98635.69;5022206;27;114472;-92
2023/09/23 07:19:03;;;;;;;;;;;14.90;94.00;;;15.57;58.31;98639.94;5028764;27;112649;-91
2023/09/23 07:21:29;;;;;;;;;;;15.10;94.00;;;15.68;57.99;98634.69;5034225;27;124066;-92
2023/09/23 07:23:57;;;;;;;;;;;15.10;93.80;;;15.77;57.73;98638.22;5037085;27;124574;-92
2023/09/23 07:26:24;;;;;;;;;;;15.20;93.80;;;15.86;57.56;98633.31;5038521;27;115038;-93
2023/09/23 07:28:52;;;;;;;;;;;15.30;93.70;;;15.95;57.45;98624.00;5054842;27;113698;-91
2023/09/23 07:31:20;;;;;;;;;;;15.40;93.60;;;16.06;57.15;98639.06;5014746;27;124254;-91
2023/09/23 07:33:47;;;;;;;;;;;15.50;93.50;;;16.13;56.85;98636.50;5027211;27;123957;-93
2023/09/23 07:36:14;;;;;;;;;;;15.60;93.40;;;16.20;56.78;98645.06;5022161;27;114941;-91
2023/09/23 07:38:40;;;;;;;;;;;15.70;93.20;;;16.28;56.33;98646.91;5013934;27;113154;-93
2023/09/23 07:41:07;;;;;;;;;;;15.70;93.10;;;16.37;56.08;98662.66;5065923;27;122323;-91
2023/09/23 07:43:34;;;;;;;;;;;15.80;92.90;;;16.41;55.31;98653.22;5022436;27;123975;-94
2023/09/23 07:46:01;;;;;;;;;;;15.90;92.50;;;16.44;54.93;98660.06;5024761;27;115142;-93
2023/09/23 07:48:27;;;;;;;;;;;16.00;92.30;;;16.48;54.52;98664.59;5030412;27;113967;-91
2023/09/23 07:50:54;;;;;;;;;;;16.00;91.90;;;16.51;53.51;98661.09;5030957;27;124458;-91
2023/09/23 07:53:22;;;;;;;;;;;16.00;91.40;;;16.54;53.56;98671.53;5023530;27;124358;-92
2023/09/23 07:55:48;;;;;;;;;;;16.10;91.40;;;16.56;53.48;98679.56;5020705;27;114581;-91
2023/09/23 07:58:15;;;;;;;;;;;16.10;91.20;;;16.61;52.86;98670.94;5036735;27;115012;-90
2023/09/23 08:00:41;;;;;;;;;;;16.10;91.00;;;16.66;52.71;98684.63;5051552;27;124821;-91
2023/09/23 08:03:08;;;;;;;;;;;16.20;90.90;;;16.67;52.39;98680.66;5033984;27;123284;-92
2023/09/23 08:05:35;;;;;;;;;;;16.20;90.50;;;16.67;51.90;98691.00;5028930;27;113025;-92
2023/09/23 08:08:01;;;;;;;;;;;16.30;90.30;;;16.70;52.01;98690.28;5032736;27;113837;-90
2023/09/23 08:10:27;;;;;;;;;;;16.20;90.10;;;16.72;51.79;98699.13;5034983;27;123848;-94
2023/09/23 08:12:53;;;;;;;;;;;16.30;90.10;;;16.76;51.75;98711.19;5029997;27;122902;-92
2023/09/23 08:15:20;;;;;;;;;;;16.40;90.10;;;16.81;51.37;98701.78;5030980;27;114295;-92
2023/09/23 08:17:46;;;;;;;;;;;16.40;89.70;;;16.86;51.26;98704.31;5052614;27;113407;-93
2023/09/23 08:20:20;;;;;;;;;;;16.50;89.60;;;16.90;50.92;98702.41;5030388;27;124253;-90
2023/09/23 08:22:48;;;;;;;;;;;16.50;89.10;;;16.94;50.51;98722.88;5042585;27;124082;-88
2023/09/23 08:25:24;;;;;;;;;;;16.50;88.60;;;16.97;50.07;98727.75;5013222;27;114523;-92
2023/09/23 08:27:56;;;;;;;;;;;16.60;87.50;;;17.00;49.47;98724.22;5026723;27;114072;-94
2023/09/23 08:30:23;;;;;;;;;;;16.60;87.10;;;17.05;49.65;98723.97;5063156;27;124905;-91
2023/09/23 08:32:57;;;;;;;;;;;16.60;87.00;;;17.11;49.68;98742.06;5039827;27;123145;-92
2023/09/23 08:35:24;;;;;;;;;;;16.70;87.10;;;17.12;49.41;98732.56;5035765;27;114970;-92
2023/09/23 08:37:50;;;;;;;;;;;16.70;86.30;;;17.15;49.42;98731.84;5030924;27;113702;-93
2023/09/23 08:40:19;;;;;;;;;;;16.80;86.50;;;17.18;49.48;98745.06;5011348;28;124518;-92
2023/09/23 08:42:50;;;;;;;;;;;20.50;89.90;;;17.23;49.47;98742.03;4965526;28;123213;-92
2023/09/23 08:45:16;;;;;;;;;;;16.80;86.50;;;17.26;49.35;98734.91;5010556;28;115161;-91
2023/09/23 08:47:43;;;;;;;;;;;16.90;86.40;;;17.28;48.81;98743.75;5005178;28;113973;-92
2023/09/23 08:50:10;;;;;;;;;;;16.90;85.80;;;17.27;49.18;98735.72;5009501;28;123350;-93
2023/09/23 08:52:36;;;;;;;;;;;16.90;85.90;;;17.27;49.09;98744.91;5005133;28;124217;-93
2023/09/23 08:55:07;;;;;;;;;;;16.90;87.60;;;17.27;49.37;98742.09;4990174;28;113873;-90
2023/09/23 08:57:35;;;;;;;;;;;16.90;86.00;;;17.29;49.62;98744.56;4996745;28;113976;-92
2023/09/23 09:00:08;;;;;;;;;;;16.90;86.30;;;17.34;49.64;98742.31;4992901;28;123801;-92
2023/09/23 09:02:36;;;;;;;;;;;17.00;86.50;;;17.40;49.49;98740.84;4993164;28;124354;-90
2023/09/23 09:05:03;;;;;;;;;;;17.00;86.40;;;17.47;49.15;98740.25;5008116;28;116091;-91
2023/09/23 09:07:33;;;;;;;;;;;17.10;86.20;;;17.50;48.98;98744.31;4989970;28;113401;-91
2023/09/23 09:10:00;;;;;;;;;;;17.10;85.90;;;17.51;48.91;98745.91;4979496;28;124012;-91
2023/09/23 09:12:27;;;;;;;;;;;17.10;85.50;;;17.51;48.47;98749.50;5039925;27;122961;-91
2023/09/23 09:14:56;;;;;;;;;;;17.20;85.10;;;17.48;48.41;98744.66;5038217;27;113475;-91
2023/09/23 09:17:22;;;;;;;;;;;17.20;84.80;;;17.47;48.68;98750.63;5056441;27;113696;-92
2023/09/23 09:19:50;;;;;;;;;;;17.20;84.80;;;17.49;48.30;98740.72;5078403;27;123778;-96
2023/09/23 09:22:19;;;;;;;;;;;17.20;84.40;;;17.50;48.41;98742.31;5040449;27;124501;-91
2023/09/23 09:24:46;;;;;;;;;;;17.20;84.50;;;17.51;48.79;98731.94;5027066;27;114593;-90
2023/09/23 09:27:14;;;;;;;;;;;17.20;84.90;;;17.53;48.47;98749.16;5058496;27;114071;-91
2023/09/23 09:29:43;;;;;;;;;;;17.20;84.60;;;17.57;48.54;98738.88;5048437;27;124557;-90
2023/09/23 09:32:11;;;;;;;;;;;17.20;84.70;;;17.62;48.71;98722.69;5049106;27;124156;-89
2023/09/23 09:34:48;;;;;;;;;;;17.20;84.70;;;17.70;48.25;98731.22;5025081;27;113686;-91
2023/09/23 09:37:15;;;;;;;;;;;17.30;84.70;;;17.75;47.98;98730.94;5042948;27;115301;-91
2023/09/23 09:40:00;;;;;;;;;;;17.40;84.40;;;17.76;47.61;98746.53;5023963;27;124457;-89
2023/09/23 09:42:33;;;;;;;;;;;17.40;83.90;;;17.77;47.11;98739.78;5033686;27;123331;-88
2023/09/23 09:45:00;;;;;;;;;;;17.40;82.70;;;17.78;47.44;98738.59;5021519;27;113607;-90
2023/09/23 09:47:29;;;;;;;;;;;17.40;83.00;;;17.84;47.19;98731.63;5042395;27;113593;-90
2023/09/23 09:49:59;;;;;;;;;;;17.50;82.90;;;17.88;46.79;98730.50;5035583;27;125065;-90
2023/09/23 09:52:26;;;;;;;;;;;17.50;82.10;;;17.92;46.86;98724.19;5048088;27;123058;-90
2023/09/23 09:54:57;;;;;;;;;;;17.50;82.10;;;17.96;46.65;98723.09;5029920;27;114510;-90
2023/09/23 09:57:31;;;;;;;;;;;14.60;79.20;;;18.00;45.93;98738.00;5016591;27;114647;-90
2023/09/23 10:02:48;;;;;;;;;;;17.70;80.30;;;18.05;45.73;98726.53;5041538;27;123584;-89
2023/09/23 10:05:17;;;;;;;;;;;17.70;80.30;;;18.08;45.02;98725.78;5031008;27;113700;-90
2023/09/23 10:07:58;;;;;;;;;;;17.70;79.30;;;18.12;45.12;98731.47;5027161;27;114347;-88
2023/09/23 10:10:32;;;;;;;;;;;17.80;79.30;;;18.19;44.76;98740.03;5001271;28;123567;-89
2023/09/23 10:13:11;;;;;;;;;;;17.80;78.90;;;18.25;44.15;98740.53;5041108;27;123751;-90
2023/09/23 10:15:40;;;;;;;;;;;17.80;78.70;;;18.35;44.48;98750.34;5027742;27;112381;-89
2023/09/23 10:18:14;;;;;;;;;;;17.90;78.80;;;18.41;44.47;98732.09;5029424;27;113836;-90
2023/09/23 10:20:49;;;;;;;;;;;18.00;78.90;;;18.47;44.49;98731.44;5015328;28;123962;-89
2023/09/23 10:23:19;;;;;;;;;;;18.10;78.80;;;18.53;44.38;98727.16;5062390;27;124082;-89
2023/09/23 10:25:48;;;;;;;;;;;15.20;75.70;;;18.63;44.53;98727.78;5028816;27;115487;-91
2023/09/23 10:28:25;;;;;;;;;;;18.20;78.80;;;18.76;44.39;98737.66;5029502;27;115526;-90
2023/09/23 10:31:01;;;;;;;;;;;18.30;78.90;;;18.85;43.69;98729.84;5060725;27;124697;-89
2023/09/23 10:33:29;;;;;;;;;;;18.40;77.90;;;18.91;43.53;98728.38;5060988;27;122850;-89
2023/09/23 10:36:00;;;;;;;;;;;18.40;77.50;;;18.98;43.75;98745.31;5045857;27;114848;-88
2023/09/23 10:38:30;;;;;;;;;;;18.50;77.80;;;18.98;42.37;98741.69;5036302;27;113673;-89
2023/09/23 10:40:58;;;;;;;;;;;18.50;75.50;;;18.98;42.17;98739.72;5039758;27;124130;-88
2023/09/23 10:43:25;;;;;;;;;;;18.60;75.10;;;19.03;42.18;98741.41;5067179;27;123093;-90
2023/09/23 10:45:56;;;;;;;;;;;18.60;74.80;;;19.10;42.03;98735.94;5035084;27;114361;-90
2023/09/23 10:48:23;;;;;;;;;;;18.70;74.50;;;19.17;42.05;98746.47;5026399;27;113347;-89
2023/09/23 10:50:52;;;;;;;;;;;18.80;74.60;;;19.31;41.87;98745.91;5076730;27;124886;-89
2023/09/23 10:53:23;;;;;;;;;;;18.80;74.40;;;19.39;41.33;98745.66;5037989;27;122749;-89
2023/09/23 10:55:52;;;;;;;;;;;19.00;73.70;;;19.50;41.48;98733.84;5029682;28;114482;-89
2023/09/23 10:58:18;;;;;;;;;;;19.00;73.60;;;19.62;41.30;98740.06;5033350;27;112957;-87
2023/09/23 11:00:46;;;;;;;;;;;19.10;73.90;;;19.75;41.38;98731.50;5056206;27;124980;-88
2023/09/23 11:03:16;;;;;;;;;;;19.30;73.80;;;19.84;41.16;98746.88;5038804;27;123156;-88
2023/09/23 11:05:44;;;;;;;;;;;19.30;73.50;;;19.92;41.12;98739.38;5040835;27;114120;-88
2023/09/23 11:08:14;;;;;;;;;;;19.40;73.20;;;19.98;41.18;98745.47;5022907;27;113025;-90
2023/09/23 11:10:45;;;;;;;;;;;19.50;73.50;;;20.02;41.21;98746.38;5046222;27;124155;-88
2023/09/23 11:13:12;;;;;;;;;;;19.60;73.20;;;20.02;41.00;98744.34;5029575;27;123395;-88
2023/09/23 11:15:45;;;;;;;;;;;19.60;72.80;;;20.03;40.67;98739.56;5032775;27;114578;-87
2023/09/23 11:18:13;;;;;;;;;;;19.60;72.60;;;20.01;41.08;98748.31;5045354;27;115057;-88